Time;durP1;ratioP1;P1;durP2;ratioP2;P2;SDS_P1;SDS_P2;PMS_P1;PMS_P2;Temp;Humidity;BMP_temperature;BMP_pressure;BME280_temperature;BME280_humidity;BME280_pressure;Samples;Min_cycle;Max_cycle;Signal;HPM_P1;HPM_P2
2022/03/10 00:00:28;;;;;;;9.40;7.77;;;;;;;-2.60;100.00;97861.53;4936615;28;20531;-61
2022/03/10 00:02:56;;;;;;;8.30;7.47;;;;;;;-2.58;100.00;97872.66;4957345;28;20269;-62
2022/03/10 00:05:24;;;;;;;9.47;7.97;;;;;;;-2.73;100.00;97872.59;4948441;28;20214;-63
2022/03/10 00:07:52;;;;;;;9.57;8.60;;;;;;;-2.74;100.00;97870.06;4964720;28;20267;-59
2022/03/10 00:10:20;;;;;;;9.47;8.20;;;;;;;-2.54;100.00;97876.75;4950669;28;20229;-59
2022/03/10 00:12:51;;;;;;;9.07;7.83;;;;;;;-2.50;100.00;97876.53;4953165;28;20213;-63
2022/03/10 00:15:22;;;;;;;9.17;7.20;;;;;;;-2.71;100.00;97875.94;4965612;28;20507;-62
2022/03/10 00:17:50;;;;;;;10.33;9.20;;;;;;;-2.71;100.00;97881.13;4926785;28;20843;-63
2022/03/10 00:20:18;;;;;;;8.37;7.57;;;;;;;-2.74;100.00;97886.47;4965737;28;20233;-60
2022/03/10 00:22:47;;;;;;;9.23;7.30;;;;;;;-2.81;100.00;97885.16;4964340;28;20216;-57
2022/03/10 00:25:16;;;;;;;10.83;7.67;;;;;;;-2.86;100.00;97887.97;4958883;28;20228;-62
2022/03/10 00:27:45;;;;;;;10.37;7.83;;;;;;;-2.98;100.00;97886.88;4945088;28;20230;-56
2022/03/10 00:30:16;;;;;;;8.97;7.57;;;;;;;-3.08;100.00;97894.28;4966023;28;20222;-63
2022/03/10 00:32:48;;;;;;;8.83;7.57;;;;;;;-3.18;100.00;97894.88;4925504;28;20456;-62
2022/03/10 00:35:18;;;;;;;8.03;7.23;;;;;;;-3.28;100.00;97895.31;4964006;28;20209;-61
2022/03/10 00:37:52;;;;;;;9.20;8.27;;;;;;;-3.11;100.00;97889.25;4963751;28;20377;-61
2022/03/10 00:40:21;;;;;;;9.57;8.57;;;;;;;-3.25;100.00;97883.97;4947435;28;20256;-60
2022/03/10 00:42:50;;;;;;;8.70;7.43;;;;;;;-3.11;100.00;97893.63;4944270;28;20253;-61
2022/03/10 00:45:20;;;;;;;10.07;8.10;;;;;;;-2.99;100.00;97887.78;4964813;28;20559;-60
2022/03/10 00:47:51;;;;;;;8.90;7.53;;;;;;;-3.12;100.00;97894.56;4925015;28;20230;-61
2022/03/10 00:50:20;;;;;;;10.57;8.20;;;;;;;-3.23;100.00;97900.28;4963152;28;20210;-62
2022/03/10 00:52:49;;;;;;;9.37;7.83;;;;;;;-3.23;100.00;97900.28;4963013;28;20277;-62
2022/03/10 00:55:18;;;;;;;8.83;7.93;;;;;;;-3.20;100.00;97895.78;4965953;28;20212;-61
2022/03/10 00:57:46;;;;;;;8.37;7.10;;;;;;;-3.24;100.00;97890.84;4949932;28;20799;-62
2022/03/10 01:00:14;;;;;;;9.87;8.20;;;;;;;-3.17;100.00;97892.19;4966841;28;20248;-61
2022/03/10 01:02:44;;;;;;;11.77;7.70;;;;;;;-3.11;100.00;97891.84;4924393;28;20214;-61
2022/03/10 01:05:13;;;;;;;8.23;7.40;;;;;;;-3.18;100.00;97892.28;4962808;28;20296;-60
2022/03/10 01:07:41;;;;;;;9.10;7.53;;;;;;;-3.20;100.00;97892.34;4951696;28;20881;-63
2022/03/10 01:10:12;;;;;;;10.47;7.47;;;;;;;-3.25;100.00;97884.81;4964789;28;20201;-62
2022/03/10 01:12:42;;;;;;;9.50;8.20;;;;;;;-3.14;100.00;97888.59;4945055;28;20399;-61
2022/03/10 01:15:14;;;;;;;8.73;7.80;;;;;;;-3.16;100.00;97882.66;4965031;28;20212;-62
2022/03/10 01:17:44;;;;;;;10.20;8.87;;;;;;;-3.47;100.00;97879.06;4930303;28;20236;-62
2022/03/10 01:20:16;;;;;;;9.10;8.00;;;;;;;-3.53;100.00;97888.84;4966110;28;20757;-62
2022/03/10 01:22:45;;;;;;;10.20;8.10;;;;;;;-3.60;100.00;97890.03;4964052;28;20207;-63
2022/03/10 01:25:17;;;;;;;8.63;7.83;;;;;;;-3.80;100.00;97896.22;4949784;28;20865;-63
2022/03/10 01:27:45;;;;;;;9.10;7.67;;;;;;;-3.90;100.00;97893.28;4963455;28;20320;-60
2022/03/10 01:30:14;;;;;;;8.27;7.37;;;;;;;-3.94;100.00;97889.97;4948771;28;20309;-59
2022/03/10 01:32:44;;;;;;;9.17;7.50;;;;;;;-3.72;100.00;97898.44;4957585;28;20682;-60
2022/03/10 01:35:14;;;;;;;8.97;7.97;;;;;;;-3.72;100.00;97893.25;4934656;28;20827;-62
2022/03/10 01:37:43;;;;;;;9.50;8.17;;;;;;;-3.71;100.00;97892.34;4957931;28;20237;-59
2022/03/10 01:40:13;;;;;;;8.17;7.23;;;;;;;-3.75;100.00;97896.84;4954850;28;20303;-62
2022/03/10 01:42:41;;;;;;;10.83;8.37;;;;;;;-3.87;100.00;97900.88;4946473;28;20338;-61
2022/03/10 01:45:10;;;;;;;7.77;7.00;;;;;;;-3.69;100.00;97893.09;4946477;28;20211;-60
2022/03/10 01:47:39;;;;;;;9.03;8.20;;;;;;;-3.56;100.00;97898.50;4948989;28;20591;-61
2022/03/10 01:50:10;;;;;;;8.30;7.37;;;;;;;-3.53;100.00;97887.97;4927512;28;20295;-60
2022/03/10 01:52:38;;;;;;;8.63;7.67;;;;;;;-3.60;100.00;97892.63;4957316;28;20206;-60
2022/03/10 01:55:07;;;;;;;8.37;7.53;;;;;;;-3.58;100.00;97893.41;4944865;28;20211;-62
2022/03/10 01:57:36;;;;;;;7.87;7.07;;;;;;;-3.49;100.00;97902.44;4966811;28;20226;-63
2022/03/10 02:00:06;;;;;;;8.67;7.40;;;;;;;-3.56;100.00;97904.53;4951483;28;20694;-61
2022/03/10 02:02:34;;;;;;;9.80;8.80;;;;;;;-3.43;100.00;97903.91;4964692;28;20225;-63
2022/03/10 02:05:02;;;;;;;13.20;8.07;;;;;;;-3.59;100.00;97901.25;4928336;28;20242;-62
2022/03/10 02:10:18;;;;;;;10.03;7.80;;;;;;;-3.65;100.00;97905.84;4942089;28;20214;-62
2022/03/10 02:12:47;;;;;;;10.20;7.50;;;;;;;-3.71;100.00;97908.72;4956423;28;22143;-62
2022/03/10 02:18:14;;;;;;;9.83;8.03;;;;;;;-3.79;100.00;97909.09;4911874;29;20259;-62
2022/03/10 02:20:43;;;;;;;7.63;6.83;;;;;;;-3.78;100.00;97907.38;4878309;29;20239;-59
2022/03/10 02:23:13;;;;;;;8.83;7.40;;;;;;;-3.91;100.00;97912.31;4912546;29;20227;-62
2022/03/10 02:25:41;;;;;;;9.47;7.40;;;;;;;-4.03;100.00;97918.06;4893874;29;20283;-62
2022/03/10 02:28:09;;;;;;;8.60;7.63;;;;;;;-3.68;100.00;97924.13;4910319;29;20215;-61
2022/03/10 02:30:38;;;;;;;11.37;8.47;;;;;;;-3.63;100.00;97919.53;4895619;29;20220;-62
2022/03/10 02:33:06;;;;;;;10.17;8.57;;;;;;;-3.73;100.00;97927.84;4909459;29;20219;-58
2022/03/10 02:35:35;;;;;;;8.50;7.63;;;;;;;-3.58;100.00;97927.09;4877481;29;20242;-61
2022/03/10 02:38:03;;;;;;;6.97;6.37;;;;;;;-3.68;100.00;97925.84;4910668;29;20219;-63
2022/03/10 02:40:33;;;;;;;9.43;7.37;;;;;;;-3.84;100.00;97931.81;4897047;29;20218;-63
2022/03/10 02:43:00;;;;;;;8.67;6.83;;;;;;;-3.95;100.00;97934.09;4908346;29;20232;-62
2022/03/10 02:45:29;;;;;;;8.43;7.27;;;;;;;-3.84;100.00;97943.91;4897840;29;20214;-60
2022/03/10 02:47:57;;;;;;;8.07;7.23;;;;;;;-4.03;100.00;97947.41;4907506;29;20906;-62
2022/03/10 02:50:25;;;;;;;8.67;7.67;;;;;;;-3.76;100.00;97946.13;4881805;29;20222;-62
2022/03/10 02:52:54;;;;;;;7.90;7.20;;;;;;;-3.88;100.00;97945.81;4906384;29;20209;-62
2022/03/10 02:55:22;;;;;;;9.13;7.93;;;;;;;-3.81;100.00;97944.59;4957004;28;20251;-59
2022/03/10 02:57:51;;;;;;;8.37;7.53;;;;;;;-3.94;100.00;97956.47;4948014;28;20240;-61
2022/03/10 03:00:19;;;;;;;9.20;7.40;;;;;;;-4.08;100.00;97949.38;4940312;28;20590;-60
2022/03/10 03:02:47;;;;;;;9.83;7.10;;;;;;;-4.10;100.00;97953.78;4944596;28;20911;-62
2022/03/10 03:05:16;;;;;;;9.03;8.10;;;;;;;-3.93;100.00;97948.63;4928238;28;20206;-61
2022/03/10 03:07:45;;;;;;;7.73;7.03;;;;;;;-3.90;100.00;97950.25;4959856;28;20261;-62
2022/03/10 03:10:13;;;;;;;7.60;6.90;;;;;;;-3.85;100.00;97950.84;4960762;28;20206;-61
2022/03/10 03:12:46;;;;;;;9.93;6.90;;;;;;;-3.93;100.00;97948.63;4955692;28;20199;-61
2022/03/10 03:15:15;;;;;;;9.80;8.13;;;;;;;-3.98;100.00;97960.97;4955384;28;20229;-61
2022/03/10 03:17:47;;;;;;;7.50;6.80;;;;;;;-4.03;100.00;97957.75;4942903;28;20819;-62
2022/03/10 03:20:15;;;;;;;7.47;6.77;;;;;;;-3.99;100.00;97961.00;4929968;28;20688;-61
2022/03/10 03:22:48;;;;;;;8.03;7.23;;;;;;;-4.08;100.00;97962.31;4973193;28;20218;-57
2022/03/10 03:25:17;;;;;;;9.40;7.33;;;;;;;-4.11;100.00;97962.47;4960624;28;20203;-62
2022/03/10 03:27:46;;;;;;;8.03;7.23;;;;;;;-4.19;100.00;97961.97;4946994;28;20234;-61
2022/03/10 03:30:17;;;;;;;9.40;7.97;;;;;;;-4.19;100.00;97951.59;4960225;28;20215;-60
2022/03/10 03:32:46;;;;;;;7.27;6.67;;;;;;;-4.11;100.00;97967.63;4948716;28;20202;-62
2022/03/10 03:35:16;;;;;;;8.17;7.37;;;;;;;-4.29;100.00;97961.56;4934549;28;20206;-64
2022/03/10 03:37:44;;;;;;;8.80;7.93;;;;;;;-4.31;100.00;97974.56;4960895;28;20480;-60
2022/03/10 03:40:13;;;;;;;7.40;6.70;;;;;;;-4.46;100.00;97965.75;4961471;28;20241;-61
2022/03/10 03:42:41;;;;;;;7.60;6.87;;;;;;;-4.55;100.00;97969.59;4945604;28;20946;-61
2022/03/10 03:45:10;;;;;;;8.53;7.20;;;;;;;-4.58;100.00;97976.69;4959260;28;20231;-60
2022/03/10 03:47:40;;;;;;;7.40;6.60;;;;;;;-4.58;100.00;97976.69;4967266;28;20226;-60
2022/03/10 03:50:11;;;;;;;11.40;7.30;;;;;;;-4.83;100.00;97982.94;4947640;28;20210;-60
2022/03/10 03:52:40;;;;;;;8.40;7.60;;;;;;;-4.59;100.00;97983.59;4930408;28;20324;-60
2022/03/10 03:55:11;;;;;;;9.10;8.20;;;;;;;-4.62;100.00;97985.50;4967533;28;20590;-60
2022/03/10 03:57:40;;;;;;;8.40;7.60;;;;;;;-4.42;100.00;97988.00;4963371;28;20233;-60
2022/03/10 04:00:10;;;;;;;8.40;7.67;;;;;;;-4.40;100.00;97987.94;4944804;28;20687;-61
2022/03/10 04:02:39;;;;;;;10.43;7.63;;;;;;;-4.41;100.00;97989.66;4965909;28;20896;-59
2022/03/10 04:05:08;;;;;;;12.27;9.00;;;;;;;-4.62;100.00;97996.66;4946131;28;20215;-60
2022/03/10 04:07:36;;;;;;;9.73;8.70;;;;;;;-4.63;100.00;97989.00;4922928;28;20239;-59
2022/03/10 04:10:07;;;;;;;9.80;8.80;;;;;;;-4.62;100.00;97994.06;4962048;28;20220;-61
2022/03/10 04:12:36;;;;;;;8.77;7.60;;;;;;;-4.48;100.00;97993.47;4930596;28;20301;-62
2022/03/10 04:15:06;;;;;;;10.40;8.87;;;;;;;-4.73;100.00;97997.16;4960706;28;20213;-61
2022/03/10 04:17:34;;;;;;;9.53;7.37;;;;;;;-4.72;100.00;97998.00;4966120;28;20221;-59
2022/03/10 04:20:08;;;;;;;10.63;8.53;;;;;;;-4.55;100.00;97992.06;4940410;28;21447;-62
2022/03/10 04:22:36;;;;;;;9.00;8.07;;;;;;;-4.67;100.00;97994.31;4920368;28;20241;-58
2022/03/10 04:25:05;;;;;;;10.87;8.23;;;;;;;-4.74;100.00;97997.22;4938010;28;20448;-60
2022/03/10 04:27:34;;;;;;;9.60;8.63;;;;;;;-4.62;100.00;98003.59;4958893;28;20349;-60
2022/03/10 04:30:02;;;;;;;11.13;8.17;;;;;;;-4.85;100.00;98000.28;4956428;28;20206;-59
2022/03/10 04:32:30;;;;;;;10.80;8.37;;;;;;;-4.99;100.00;98008.63;4956359;28;20302;-61
2022/03/10 04:34:58;;;;;;;9.70;7.57;;;;;;;-4.90;100.00;98005.66;4938096;28;20294;-63
2022/03/10 04:37:27;;;;;;;12.20;8.83;;;;;;;-4.78;100.00;98003.44;4960957;28;20233;-60
2022/03/10 04:39:55;;;;;;;14.27;9.13;;;;;;;-4.80;100.00;98001.75;4924231;28;20213;-63
2022/03/10 04:42:24;;;;;;;11.17;7.97;;;;;;;-4.72;100.00;97998.00;4962958;28;20214;-61
2022/03/10 04:44:52;;;;;;;8.27;7.30;;;;;;;-4.62;100.00;97990.66;4941896;28;20662;-62
2022/03/10 04:47:20;;;;;;;8.67;7.37;;;;;;;-4.76;100.00;97993.88;4962049;28;20332;-63
2022/03/10 04:49:49;;;;;;;10.10;7.23;;;;;;;-4.76;100.00;97999.03;4946947;28;20300;-62
2022/03/10 04:52:17;;;;;;;11.17;7.97;;;;;;;-4.67;100.00;97996.03;4945033;28;20321;-62
2022/03/10 04:54:47;;;;;;;9.00;7.57;;;;;;;-4.92;100.00;97998.88;4930116;28;20214;-62
2022/03/10 04:57:15;;;;;;;8.27;7.50;;;;;;;-4.90;100.00;97999.63;4956875;28;20906;-62
2022/03/10 04:59:43;;;;;;;8.00;6.93;;;;;;;-5.10;100.00;98004.75;4940762;28;20210;-61
2022/03/10 05:02:11;;;;;;;8.60;6.77;;;;;;;-4.95;100.00;98000.69;4961054;28;20293;-61
2022/03/10 05:04:40;;;;;;;11.63;7.93;;;;;;;-5.05;100.00;97993.38;4954773;28;20234;-62
2022/03/10 05:07:10;;;;;;;11.43;7.77;;;;;;;-5.11;100.00;97997.09;4941072;28;20242;-62
2022/03/10 05:09:38;;;;;;;13.50;8.87;;;;;;;-5.08;100.00;97996.97;4922049;28;25862;-62
2022/03/10 05:12:08;;;;;;;15.03;9.17;;;;;;;-4.88;100.00;98001.25;4967409;28;21124;-61
2022/03/10 05:14:36;;;;;;;9.07;8.17;;;;;;;-5.12;100.00;98004.00;4961188;28;20206;-60
2022/03/10 05:17:04;;;;;;;10.67;8.57;;;;;;;-4.92;100.00;97998.88;4939197;28;20320;-64
2022/03/10 05:19:35;;;;;;;11.43;8.97;;;;;;;-4.94;100.00;97999.78;4962972;28;20197;-65
2022/03/10 05:22:04;;;;;;;14.40;9.17;;;;;;;-4.91;100.00;98000.53;4947625;28;20658;-62
2022/03/10 05:24:32;;;;;;;11.83;9.23;;;;;;;-4.96;100.00;97987.81;4966815;28;20426;-61
2022/03/10 05:27:01;;;;;;;13.20;10.00;;;;;;;-4.88;100.00;98000.41;4931536;28;20743;-58
2022/03/10 05:29:30;;;;;;;11.77;9.00;;;;;;;-4.88;100.00;97996.09;4961679;28;20209;-58
2022/03/10 05:31:58;;;;;;;13.70;9.50;;;;;;;-4.99;100.00;98006.03;4945360;28;20210;-59
2022/03/10 05:34:26;;;;;;;12.67;11.30;;;;;;;-4.88;100.00;98003.00;4963049;28;20683;-60
2022/03/10 05:36:54;;;;;;;12.00;10.70;;;;;;;-4.88;100.00;98003.84;4962038;28;20222;-59
2022/03/10 05:39:22;;;;;;;12.70;10.13;;;;;;;-4.93;100.00;98008.34;4935382;28;20216;-60
2022/03/10 05:41:50;;;;;;;15.27;10.30;;;;;;;-5.03;100.00;98017.41;4935442;28;20463;-59
2022/03/10 05:44:18;;;;;;;10.13;8.90;;;;;;;-5.06;100.00;98021.00;4966737;28;20223;-59
2022/03/10 05:46:47;;;;;;;10.00;9.00;;;;;;;-5.11;100.00;98017.75;4928721;28;20230;-59
2022/03/10 05:49:15;;;;;;;9.37;8.37;;;;;;;-5.21;100.00;98016.44;4942804;28;20202;-59
2022/03/10 05:51:44;;;;;;;8.90;7.40;;;;;;;-5.29;100.00;98016.78;4960121;28;20666;-58
2022/03/10 05:54:12;;;;;;;10.47;7.50;;;;;;;-5.16;100.00;98017.09;4949006;28;20198;-59
2022/03/10 05:56:40;;;;;;;9.13;8.10;;;;;;;-5.17;100.00;98018.00;4923171;28;20221;-58
2022/03/10 05:59:09;;;;;;;8.93;8.03;;;;;;;-5.09;100.00;98018.53;4958872;28;20217;-59
2022/03/10 06:01:37;;;;;;;9.33;7.97;;;;;;;-4.92;100.00;98010.06;4940753;28;20237;-60
2022/03/10 06:04:07;;;;;;;11.00;8.60;;;;;;;-5.00;100.00;98012.97;4939764;28;20803;-60
2022/03/10 06:06:36;;;;;;;10.50;9.40;;;;;;;-4.83;100.00;98019.13;4962571;28;20288;-60
2022/03/10 06:09:04;;;;;;;9.30;8.37;;;;;;;-4.81;100.00;98022.50;4960141;28;20621;-59
2022/03/10 06:11:33;;;;;;;10.47;9.37;;;;;;;-4.75;100.00;98022.22;4960615;28;20206;-61
2022/03/10 06:14:01;;;;;;;10.93;9.13;;;;;;;-4.62;100.00;98017.34;4921404;28;20601;-59
2022/03/10 06:16:29;;;;;;;8.67;7.73;;;;;;;-4.52;100.00;98018.66;4939163;28;20980;-60
2022/03/10 06:18:58;;;;;;;10.20;8.83;;;;;;;-4.43;100.00;98016.53;4941232;28;20222;-61
2022/03/10 06:21:28;;;;;;;11.50;9.83;;;;;;;-4.63;100.00;98020.03;4955808;28;20260;-59
2022/03/10 06:23:56;;;;;;;13.03;10.40;;;;;;;-4.59;100.00;98024.16;4961598;28;20239;-60
2022/03/10 06:26:25;;;;;;;11.07;9.23;;;;;;;-4.57;100.00;98025.75;4960116;28;20562;-59
2022/03/10 06:28:53;;;;;;;9.57;8.53;;;;;;;-4.51;100.00;98025.50;4926512;28;20221;-61
2022/03/10 06:31:23;;;;;;;11.30;8.60;;;;;;;-4.34;100.00;98023.88;4956367;28;20300;-58
2022/03/10 06:33:52;;;;;;;9.20;8.13;;;;;;;-4.14;100.00;98035.09;4921272;28;20234;-62
2022/03/10 06:36:20;;;;;;;9.40;8.17;;;;;;;-4.12;100.00;98025.50;4956729;28;20230;-60
2022/03/10 06:38:50;;;;;;;13.10;9.53;;;;;;;-4.16;100.00;98031.72;4963696;28;20199;-62
2022/03/10 06:41:18;;;;;;;9.83;8.37;;;;;;;-4.18;100.00;98033.53;4960571;28;20410;-61
2022/03/10 06:43:46;;;;;;;8.13;7.33;;;;;;;-4.01;100.00;98032.75;4925861;28;20250;-61
2022/03/10 06:46:14;;;;;;;10.60;9.43;;;;;;;-3.76;100.00;98040.22;4961111;28;20218;-62
2022/03/10 06:48:42;;;;;;;12.10;8.37;;;;;;;-3.67;100.00;98039.78;4933291;28;20279;-58
2022/03/10 06:51:10;;;;;;;12.93;8.57;;;;;;;-3.58;100.00;98041.09;4961247;28;21666;-62
2022/03/10 06:53:38;;;;;;;9.80;8.43;;;;;;;-3.63;100.00;98033.53;4968234;28;20579;-61
2022/03/10 06:56:08;;;;;;;9.00;8.17;;;;;;;-3.54;100.00;98041.75;4965611;28;20229;-60
2022/03/10 06:58:36;;;;;;;8.90;8.00;;;;;;;-3.21;100.00;98039.28;4936758;28;20227;-63
2022/03/10 07:01:04;;;;;;;8.70;7.80;;;;;;;-2.98;100.00;98037.28;4966722;28;20212;-65
2022/03/10 07:03:33;;;;;;;9.63;8.10;;;;;;;-2.81;100.00;98040.78;4946319;28;20208;-60
2022/03/10 07:06:01;;;;;;;9.67;8.77;;;;;;;-2.69;100.00;98037.53;4960459;28;20380;-61
2022/03/10 07:08:30;;;;;;;8.30;7.43;;;;;;;-2.76;100.00;98036.19;4962118;28;20987;-60
2022/03/10 07:10:58;;;;;;;8.43;7.60;;;;;;;-2.76;100.00;98042.19;4960095;28;20205;-61
2022/03/10 07:13:27;;;;;;;9.23;8.33;;;;;;;-2.57;100.00;98045.59;4925817;28;20427;-59
2022/03/10 07:15:56;;;;;;;10.70;7.87;;;;;;;-2.48;100.00;98048.56;4966183;28;20216;-57
2022/03/10 07:18:24;;;;;;;9.13;8.33;;;;;;;-2.34;100.00;98049.56;4958202;28;20268;-60
2022/03/10 07:20:53;;;;;;;8.70;7.83;;;;;;;-2.18;100.00;98057.38;4948927;28;20552;-62
2022/03/10 07:23:22;;;;;;;9.27;8.33;;;;;;;-2.01;100.00;98055.66;4962378;28;20218;-64
2022/03/10 07:25:50;;;;;;;9.83;8.70;;;;;;;-1.98;100.00;98058.91;4962493;28;20309;-61
2022/03/10 07:28:18;;;;;;;9.80;7.90;;;;;;;-1.58;100.00;98053.28;4918280;28;20272;-58
2022/03/10 07:30:48;;;;;;;9.03;8.13;;;;;;;-1.58;100.00;98063.69;4971203;28;20205;-59
2022/03/10 07:33:16;;;;;;;10.43;9.40;;;;;;;-1.28;100.00;98062.88;4962492;28;20405;-62
2022/03/10 07:35:44;;;;;;;10.93;8.33;;;;;;;-1.08;100.00;98060.88;4948553;28;20206;-62
2022/03/10 07:38:12;;;;;;;8.87;7.47;;;;;;;-1.10;100.00;98060.97;4958631;28;21141;-58
2022/03/10 07:40:40;;;;;;;9.50;8.27;;;;;;;-0.77;100.00;98056.47;4965244;28;20208;-60
2022/03/10 07:43:09;;;;;;;11.43;8.37;;;;;;;-0.82;100.00;98041.13;4963379;28;20589;-62
2022/03/10 07:45:37;;;;;;;11.33;8.00;;;;;;;-0.60;100.00;98063.28;4926065;28;20249;-60
2022/03/10 07:48:06;;;;;;;8.13;7.13;;;;;;;-0.49;100.00;98053.06;4959006;28;20229;-61
2022/03/10 07:50:34;;;;;;;9.47;8.47;;;;;;;-0.28;100.00;98062.25;4946273;28;20749;-63
2022/03/10 07:53:02;;;;;;;10.10;7.93;;;;;;;0.00;100.00;98053.59;4960137;28;20217;-59
2022/03/10 07:55:30;;;;;;;10.10;8.37;;;;;;;0.14;100.00;98063.97;4950684;28;20244;-59
2022/03/10 07:57:58;;;;;;;11.80;8.77;;;;;;;0.43;100.00;98055.22;4964044;28;20233;-62
2022/03/10 08:00:27;;;;;;;10.80;8.87;;;;;;;0.71;100.00;98059.50;4917727;28;20738;-61
2022/03/10 08:02:55;;;;;;;9.40;8.33;;;;;;;0.81;100.00;98054.53;4963055;28;20209;-60
2022/03/10 08:05:25;;;;;;;9.10;8.23;;;;;;;0.82;100.00;98065.81;4955541;28;20316;-63
2022/03/10 08:07:53;;;;;;;10.33;9.20;;;;;;;0.93;100.00;98055.50;4952365;28;20552;-59
2022/03/10 08:10:21;;;;;;;9.70;8.50;;;;;;;1.30;100.00;98058.25;4958330;28;20226;-62
2022/03/10 08:12:49;;;;;;;8.20;7.33;;;;;;;1.72;100.00;98059.78;4961599;28;20424;-61
2022/03/10 08:15:20;;;;;;;14.10;8.53;;;;;;;1.96;100.00;98049.41;4952919;28;20315;-61
2022/03/10 08:17:49;;;;;;;8.27;7.47;;;;;;;2.13;100.00;98056.06;4945172;28;20386;-61
2022/03/10 08:20:17;;;;;;;10.07;8.50;;;;;;;2.36;100.00;98052.72;4960340;28;20237;-62
2022/03/10 08:22:46;;;;;;;10.23;8.37;;;;;;;2.45;100.00;98047.69;4940404;28;20547;-59
2022/03/10 08:25:14;;;;;;;8.97;8.13;;;;;;;2.52;100.00;98042.84;4965138;28;20613;-62
2022/03/10 08:27:43;;;;;;;12.87;8.63;;;;;;;2.92;100.00;98038.25;4957929;28;20226;-64
2022/03/10 08:30:14;;;;;;;10.33;9.23;;;;;;;2.97;100.00;98041.34;4961929;28;20222;-64
2022/03/10 08:32:44;;;;;;;12.40;9.80;;;;;;;3.15;100.00;98037.31;4924676;28;20591;-62
2022/03/10 08:35:15;;;;;;;10.87;9.03;;;;;;;3.45;100.00;98033.34;4960189;28;20347;-58
2022/03/10 08:37:44;;;;;;;11.30;9.70;;;;;;;3.82;100.00;98028.81;4941950;28;20412;-58
2022/03/10 08:40:16;;;;;;;10.07;9.13;;;;;;;4.07;100.00;98029.50;4959925;28;20213;-61
2022/03/10 08:42:45;;;;;;;11.73;8.43;;;;;;;4.33;100.00;98023.00;4961706;28;20787;-60
2022/03/10 08:45:14;;;;;;;9.93;8.60;;;;;;;4.45;100.00;98028.22;4964310;28;20322;-60
2022/03/10 08:47:43;;;;;;;9.27;8.10;;;;;;;4.57;100.00;98023.78;4921785;28;20301;-61
2022/03/10 08:50:11;;;;;;;9.23;8.47;;;;;;;4.73;100.00;98033.81;4956502;28;20375;-62
2022/03/10 08:52:40;;;;;;;10.00;8.90;;;;;;;4.71;100.00;98036.59;4941086;28;20289;-58
2022/03/10 08:55:11;;;;;;;10.23;9.23;;;;;;;5.05;99.47;98020.69;4959917;28;20217;-59
2022/03/10 08:57:41;;;;;;;9.27;7.90;;;;;;;5.22;90.28;98024.50;4956123;28;20393;-61
2022/03/10 09:00:11;;;;;;;12.37;8.97;;;;;;;5.47;87.68;98011.91;4961697;28;20210;-60
2022/03/10 09:02:41;;;;;;;10.83;8.67;;;;;;;5.63;81.57;98019.31;4921695;28;20278;-59
2022/03/10 09:05:10;;;;;;;9.43;8.17;;;;;;;5.77;80.58;98019.94;4961465;28;20229;-61
2022/03/10 09:07:40;;;;;;;9.27;8.33;;;;;;;5.93;75.37;98016.81;4954078;28;20510;-61
2022/03/10 09:10:10;;;;;;;9.13;8.30;;;;;;;6.03;75.44;98022.09;4942040;28;20244;-57
2022/03/10 09:12:39;;;;;;;10.30;8.20;;;;;;;6.22;75.18;98021.31;4956452;28;20402;-60
2022/03/10 09:15:10;;;;;;;9.07;8.10;;;;;;;6.36;70.86;98017.47;4963063;28;20202;-60
2022/03/10 09:17:38;;;;;;;9.77;8.00;;;;;;;6.40;71.90;98015.41;4920211;28;20428;-60
2022/03/10 09:20:07;;;;;;;7.60;6.77;;;;;;;6.59;62.95;98011.97;4959117;28;20660;-59
2022/03/10 09:22:35;;;;;;;9.13;8.20;;;;;;;6.64;64.64;98020.28;4959205;28;20206;-62
2022/03/10 09:25:08;;;;;;;7.67;6.90;;;;;;;6.64;64.00;98009.72;4945899;28;20610;-62
2022/03/10 09:27:36;;;;;;;7.77;7.00;;;;;;;6.66;63.52;98010.44;4958311;28;20230;-60
2022/03/10 09:30:07;;;;;;;7.60;6.60;;;;;;;6.70;64.59;98005.72;4963290;28;20296;-59
2022/03/10 09:32:39;;;;;;;7.03;6.43;;;;;;;6.67;62.32;98001.56;4916001;28;20205;-59
2022/03/10 09:35:09;;;;;;;8.27;6.53;;;;;;;6.34;64.40;98000.97;4960084;28;20603;-61
2022/03/10 09:37:37;;;;;;;8.53;7.27;;;;;;;6.43;61.99;97991.44;4955405;28;20334;-59
2022/03/10 09:40:08;;;;;;;7.87;7.07;;;;;;;6.45;62.28;97995.59;4945039;28;20783;-64
2022/03/10 09:42:37;;;;;;;9.27;7.10;;;;;;;6.39;63.05;97997.94;4957481;28;20338;-64
2022/03/10 09:45:08;;;;;;;9.00;6.40;;;;;;;6.48;62.81;98002.38;4959562;28;20213;-60
2022/03/10 09:47:39;;;;;;;7.37;6.67;;;;;;;6.79;60.11;97999.63;4919165;28;21768;-56
2022/03/10 09:50:10;;;;;;;8.97;5.83;;;;;;;6.61;59.50;97996.84;4965028;28;20228;-64
2022/03/10 09:52:39;;;;;;;7.80;6.97;;;;;;;6.73;58.50;98000.19;4959076;28;20231;-61
2022/03/10 09:55:08;;;;;;;7.60;6.90;;;;;;;6.63;58.00;97997.53;4960277;28;20205;-62
2022/03/10 09:57:42;;;;;;;7.30;6.60;;;;;;;6.69;59.81;98006.69;4942006;28;20386;-61
2022/03/10 10:00:12;;;;;;;7.70;6.83;;;;;;;6.35;61.10;97997.38;4964678;28;20680;-64
2022/03/10 10:02:44;;;;;;;7.33;6.27;;;;;;;6.36;59.98;98001.69;4958481;28;20205;-62
2022/03/10 10:05:24;;;;;;;6.50;6.00;;;;;;;6.19;61.13;98004.03;4919151;28;20214;-61
2022/03/10 10:08:09;;;;;;;7.27;6.57;;;;;;;6.11;61.34;97998.59;4960331;28;20232;-63
2022/03/10 10:10:40;;;;;;;6.63;6.03;;;;;;;6.33;59.78;97997.53;4955583;28;20585;-64
2022/03/10 10:13:25;;;;;;;6.50;5.90;;;;;;;6.40;57.61;97999.63;4944424;28;20701;-60
2022/03/10 10:15:56;;;;;;;7.37;6.23;;;;;;;6.47;56.59;98001.56;4960515;28;20213;-63
2022/03/10 10:18:25;;;;;;;7.43;6.67;;;;;;;6.44;58.46;97995.72;4960708;28;20212;-59
2022/03/10 10:21:14;;;;;;;6.97;6.17;;;;;;;6.56;57.80;97996.44;4924112;28;20782;-59
2022/03/10 10:23:43;;;;;;;7.73;6.73;;;;;;;6.61;55.75;98000.28;4958962;28;20454;-59
2022/03/10 10:26:12;;;;;;;6.23;5.63;;;;;;;6.64;54.25;98000.06;4957325;28;20230;-61
2022/03/10 10:28:47;;;;;;;6.43;5.70;;;;;;;6.78;53.80;97993.50;4946257;28;20201;-60
2022/03/10 10:31:17;;;;;;;6.57;5.97;;;;;;;6.79;53.75;97994.34;4957946;28;20207;-60
2022/03/10 10:33:59;;;;;;;7.50;6.20;;;;;;;7.08;54.62;97988.22;4964421;28;20350;-61
2022/03/10 10:36:28;;;;;;;6.20;5.70;;;;;;;7.10;51.92;97987.09;4919809;28;20336;-61
2022/03/10 10:38:58;;;;;;;6.60;6.00;;;;;;;7.50;52.04;97985.19;4956950;28;20297;-61
2022/03/10 10:41:30;;;;;;;6.27;5.67;;;;;;;7.02;52.22;97992.25;4946785;28;20478;-61
2022/03/10 10:44:00;;;;;;;8.97;7.03;;;;;;;7.19;51.25;97995.94;4959882;28;20225;-60
2022/03/10 10:46:31;;;;;;;6.30;5.17;;;;;;;6.96;51.63;97990.16;4960744;28;20772;-60
2022/03/10 10:49:03;;;;;;;7.40;6.60;;;;;;;7.40;51.14;97984.38;4962538;28;21519;-61
2022/03/10 10:51:34;;;;;;;6.47;5.77;;;;;;;7.59;49.76;97985.28;4924412;28;20347;-61
2022/03/10 10:54:05;;;;;;;7.87;6.37;;;;;;;7.39;49.56;97982.72;4959862;28;20337;-62
2022/03/10 10:56:34;;;;;;;8.10;6.47;;;;;;;7.57;50.52;97980.13;4958414;28;20433;-63
2022/03/10 10:59:03;;;;;;;7.60;6.90;;;;;;;7.58;50.22;97978.34;4946934;28;20276;-62
2022/03/10 11:01:33;;;;;;;7.13;6.20;;;;;;;7.80;48.82;97972.69;4954144;28;20206;-60
2022/03/10 11:04:04;;;;;;;7.37;6.20;;;;;;;7.57;49.12;97971.41;4961628;28;20209;-60
2022/03/10 11:06:34;;;;;;;8.27;5.73;;;;;;;7.18;48.02;97973.19;4914685;28;21017;-63
2022/03/10 11:09:03;;;;;;;14.40;6.53;;;;;;;7.59;46.10;97964.19;4958876;28;20214;-62
2022/03/10 11:11:32;;;;;;;5.10;4.67;;;;;;;8.01;45.74;97961.03;4960314;28;20577;-60
2022/03/10 11:14:01;;;;;;;5.47;4.97;;;;;;;8.18;44.10;97966.50;4945403;28;20213;-61
2022/03/10 11:16:29;;;;;;;5.03;4.63;;;;;;;8.30;43.44;97965.28;4954948;28;20598;-62
2022/03/10 11:18:59;;;;;;;5.13;4.63;;;;;;;8.31;44.23;97958.19;4961668;28;21170;-60
2022/03/10 11:22:01;;;;;;;5.87;5.27;;;;;;;8.25;42.90;97949.91;4955515;28;20324;-60
2022/03/10 11:24:53;;;;;;;5.50;5.00;;;;;;;7.89;44.78;97939.28;4913570;28;20465;-59
2022/03/10 11:27:24;;;;;;;5.23;4.80;;;;;;;8.11;43.99;97945.97;4951498;28;20392;-57
2022/03/10 11:29:54;;;;;;;5.20;4.80;;;;;;;8.50;44.47;97952.81;4943959;28;20214;-63
2022/03/10 11:32:27;;;;;;;6.10;5.30;;;;;;;7.96;45.84;97943.03;4954282;28;20290;-58
2022/03/10 11:34:58;;;;;;;7.10;5.47;;;;;;;8.24;44.87;97950.88;4959991;28;20210;-64
2022/03/10 11:37:39;;;;;;;5.17;4.67;;;;;;;8.03;46.23;97945.06;4956508;28;20300;-61
2022/03/10 11:40:10;;;;;;;5.07;4.67;;;;;;;7.94;45.45;97937.03;4917633;28;20347;-60
2022/03/10 11:42:40;;;;;;;5.13;4.73;;;;;;;8.08;44.48;97930.44;4960626;28;20205;-61